Leominster, United Kingdom
Current Conditions -  °F | °C
As of 2:20 PM on Saturday 22 Nov 2014 (Local Time) from EGBJ Reporting Station
Scattered Clouds Scattered Clouds  
Wind Chill: 57°   Ceiling: Unl
Heat Index: 57°   Visibility: 6mi
Dew Point: 54°   Wind: 5mph
Humidity: 88%   Direction: 200°SSW
Pressure: 29.88"   Gusts: NA
Location:  52.23°N, 2.74°W
Report Text: EGBJ 221420Z 20004KT 9999 FEW009 SCT012 14/12 Q1012
Loading
Personal Weather Stations






























Interactive Weather Map New forecast layout! Learn more

10-Day Weather Forecast

Advertisements
Track Severe Weather on mobile